sensor_id;sensor_type;location;lat;lon;timestamp;P1;durP1;ratioP1;P2;durP2;ratioP2
68951;SDS011;56000;51.146;17.112;2022-08-25T00:02:16;39.90;;;25.80;;
68951;SDS011;56000;51.146;17.112;2022-08-25T00:04:49;38.80;;;26.20;;
68951;SDS011;56000;51.146;17.112;2022-08-25T00:07:22;35.30;;;25.40;;
68951;SDS011;56000;51.146;17.112;2022-08-25T00:09:55;34.50;;;23.80;;
68951;SDS011;56000;51.146;17.112;2022-08-25T00:12:28;33.40;;;24.40;;
68951;SDS011;56000;51.146;17.112;2022-08-25T00:15:01;41.90;;;26.00;;
68951;SDS011;56000;51.146;17.112;2022-08-25T00:17:34;34.50;;;24.10;;
68951;SDS011;56000;51.146;17.112;2022-08-25T00:20:09;36.80;;;25.90;;
68951;SDS011;56000;51.146;17.112;2022-08-25T00:22:42;40.50;;;26.80;;
68951;SDS011;56000;51.146;17.112;2022-08-25T00:25:15;37.80;;;25.90;;
68951;SDS011;56000;51.146;17.112;2022-08-25T00:27:48;37.90;;;25.90;;
68951;SDS011;56000;51.146;17.112;2022-08-25T00:30:22;43.60;;;27.30;;
68951;SDS011;56000;51.146;17.112;2022-08-25T00:32:56;44.10;;;27.60;;
68951;SDS011;56000;51.146;17.112;2022-08-25T00:35:29;38.20;;;26.80;;
68951;SDS011;56000;51.146;17.112;2022-08-25T00:38:02;40.00;;;26.60;;
68951;SDS011;56000;51.146;17.112;2022-08-25T00:40:36;40.40;;;26.90;;
68951;SDS011;56000;51.146;17.112;2022-08-25T00:43:12;46.50;;;27.20;;
68951;SDS011;56000;51.146;17.112;2022-08-25T00:45:45;39.90;;;25.60;;
68951;SDS011;56000;51.146;17.112;2022-08-25T00:48:18;43.00;;;28.30;;
68951;SDS011;56000;51.146;17.112;2022-08-25T00:50:50;47.50;;;29.60;;
68951;SDS011;56000;51.146;17.112;2022-08-25T00:53:23;55.60;;;31.50;;
68951;SDS011;56000;51.146;17.112;2022-08-25T00:55:57;53.00;;;31.00;;
68951;SDS011;56000;51.146;17.112;2022-08-25T00:58:30;52.60;;;30.00;;
68951;SDS011;56000;51.146;17.112;2022-08-25T01:01:05;48.80;;;28.30;;
68951;SDS011;56000;51.146;17.112;2022-08-25T01:03:38;48.60;;;29.50;;
68951;SDS011;56000;51.146;17.112;2022-08-25T01:06:11;47.90;;;31.20;;
68951;SDS011;56000;51.146;17.112;2022-08-25T01:08:44;42.50;;;27.00;;
68951;SDS011;56000;51.146;17.112;2022-08-25T01:11:17;43.20;;;27.60;;
68951;SDS011;56000;51.146;17.112;2022-08-25T01:13:52;40.80;;;27.80;;
68951;SDS011;56000;51.146;17.112;2022-08-25T01:16:26;35.10;;;25.80;;
68951;SDS011;56000;51.146;17.112;2022-08-25T01:18:59;38.50;;;24.30;;
68951;SDS011;56000;51.146;17.112;2022-08-25T01:21:39;39.20;;;27.30;;
68951;SDS011;56000;51.146;17.112;2022-08-25T01:24:17;46.20;;;28.40;;
68951;SDS011;56000;51.146;17.112;2022-08-25T01:26:54;51.10;;;28.20;;
68951;SDS011;56000;51.146;17.112;2022-08-25T01:29:28;41.70;;;26.40;;
68951;SDS011;56000;51.146;17.112;2022-08-25T01:32:03;40.60;;;27.90;;
68951;SDS011;56000;51.146;17.112;2022-08-25T01:34:40;47.40;;;29.00;;
68951;SDS011;56000;51.146;17.112;2022-08-25T01:37:15;40.20;;;26.80;;
68951;SDS011;56000;51.146;17.112;2022-08-25T01:39:49;36.20;;;25.30;;
68951;SDS011;56000;51.146;17.112;2022-08-25T01:42:37;39.10;;;24.60;;
68951;SDS011;56000;51.146;17.112;2022-08-25T01:45:17;41.20;;;27.10;;
68951;SDS011;56000;51.146;17.112;2022-08-25T01:47:50;45.30;;;28.50;;
68951;SDS011;56000;51.146;17.112;2022-08-25T01:50:23;47.80;;;29.90;;
68951;SDS011;56000;51.146;17.112;2022-08-25T01:53:01;48.20;;;28.40;;
68951;SDS011;56000;51.146;17.112;2022-08-25T01:55:38;41.40;;;27.80;;
68951;SDS011;56000;51.146;17.112;2022-08-25T01:58:25;53.40;;;29.90;;
68951;SDS011;56000;51.146;17.112;2022-08-25T02:01:01;43.30;;;28.60;;
68951;SDS011;56000;51.146;17.112;2022-08-25T02:03:37;44.60;;;29.40;;
68951;SDS011;56000;51.146;17.112;2022-08-25T02:06:13;51.30;;;31.00;;
68951;SDS011;56000;51.146;17.112;2022-08-25T02:08:51;48.80;;;32.80;;
68951;SDS011;56000;51.146;17.112;2022-08-25T02:11:27;48.30;;;31.10;;
68951;SDS011;56000;51.146;17.112;2022-08-25T02:14:01;45.70;;;28.20;;
68951;SDS011;56000;51.146;17.112;2022-08-25T02:16:35;56.00;;;29.50;;
68951;SDS011;56000;51.146;17.112;2022-08-25T02:19:12;50.50;;;28.70;;
68951;SDS011;56000;51.146;17.112;2022-08-25T02:21:45;40.80;;;28.20;;
68951;SDS011;56000;51.146;17.112;2022-08-25T02:24:18;53.60;;;29.00;;
68951;SDS011;56000;51.146;17.112;2022-08-25T02:26:51;52.40;;;31.10;;
68951;SDS011;56000;51.146;17.112;2022-08-25T02:29:24;83.30;;;31.30;;
68951;SDS011;56000;51.146;17.112;2022-08-25T02:31:57;62.70;;;29.40;;
68951;SDS011;56000;51.146;17.112;2022-08-25T02:34:30;67.40;;;29.80;;
68951;SDS011;56000;51.146;17.112;2022-08-25T02:37:03;93.40;;;31.70;;
68951;SDS011;56000;51.146;17.112;2022-08-25T02:39:36;141.80;;;31.60;;
68951;SDS011;56000;51.146;17.112;2022-08-25T02:42:10;156.80;;;29.30;;
68951;SDS011;56000;51.146;17.112;2022-08-25T02:44:43;123.50;;;28.80;;
68951;SDS011;56000;51.146;17.112;2022-08-25T02:47:17;150.30;;;28.90;;
68951;SDS011;56000;51.146;17.112;2022-08-25T02:49:56;203.50;;;28.60;;
68951;SDS011;56000;51.146;17.112;2022-08-25T02:52:29;136.20;;;27.80;;
68951;SDS011;56000;51.146;17.112;2022-08-25T02:55:02;161.90;;;24.90;;
68951;SDS011;56000;51.146;17.112;2022-08-25T02:57:38;137.90;;;22.90;;
68951;SDS011;56000;51.146;17.112;2022-08-25T03:00:13;171.10;;;24.80;;
68951;SDS011;56000;51.146;17.112;2022-08-25T03:02:47;111.30;;;23.40;;
68951;SDS011;56000;51.146;17.112;2022-08-25T03:05:20;67.00;;;22.40;;
68951;SDS011;56000;51.146;17.112;2022-08-25T03:07:53;65.70;;;21.90;;
68951;SDS011;56000;51.146;17.112;2022-08-25T03:10:26;65.70;;;22.40;;
68951;SDS011;56000;51.146;17.112;2022-08-25T03:13:00;46.60;;;20.70;;
68951;SDS011;56000;51.146;17.112;2022-08-25T03:15:33;48.40;;;18.00;;
68951;SDS011;56000;51.146;17.112;2022-08-25T03:18:07;48.40;;;18.30;;
68951;SDS011;56000;51.146;17.112;2022-08-25T03:20:43;46.90;;;21.50;;
68951;SDS011;56000;51.146;17.112;2022-08-25T03:23:16;50.70;;;20.80;;
68951;SDS011;56000;51.146;17.112;2022-08-25T03:25:50;34.60;;;16.40;;
68951;SDS011;56000;51.146;17.112;2022-08-25T03:28:42;31.70;;;18.80;;
68951;SDS011;56000;51.146;17.112;2022-08-25T03:31:15;23.10;;;19.00;;
68951;SDS011;56000;51.146;17.112;2022-08-25T03:33:49;26.70;;;22.40;;
68951;SDS011;56000;51.146;17.112;2022-08-25T03:36:23;26.20;;;22.20;;
68951;SDS011;56000;51.146;17.112;2022-08-25T03:38:57;23.70;;;20.40;;
68951;SDS011;56000;51.146;17.112;2022-08-25T03:41:31;23.10;;;18.30;;
68951;SDS011;56000;51.146;17.112;2022-08-25T03:44:05;27.60;;;21.30;;
68951;SDS011;56000;51.146;17.112;2022-08-25T03:46:41;28.60;;;22.70;;
68951;SDS011;56000;51.146;17.112;2022-08-25T03:49:18;27.20;;;22.30;;
68951;SDS011;56000;51.146;17.112;2022-08-25T03:51:53;27.00;;;23.30;;
68951;SDS011;56000;51.146;17.112;2022-08-25T03:54:26;30.60;;;24.80;;
68951;SDS011;56000;51.146;17.112;2022-08-25T03:56:59;30.90;;;25.00;;
68951;SDS011;56000;51.146;17.112;2022-08-25T03:59:33;32.00;;;25.40;;
68951;SDS011;56000;51.146;17.112;2022-08-25T04:02:07;30.50;;;25.00;;
68951;SDS011;56000;51.146;17.112;2022-08-25T04:04:40;27.30;;;23.00;;
68951;SDS011;56000;51.146;17.112;2022-08-25T04:07:14;30.90;;;21.40;;
68951;SDS011;56000;51.146;17.112;2022-08-25T04:09:47;34.40;;;23.90;;
68951;SDS011;56000;51.146;17.112;2022-08-25T04:12:20;32.90;;;24.20;;
68951;SDS011;56000;51.146;17.112;2022-08-25T04:14:53;22.50;;;19.80;;
68951;SDS011;56000;51.146;17.112;2022-08-25T04:17:26;29.60;;;21.20;;
68951;SDS011;56000;51.146;17.112;2022-08-25T04:20:00;28.60;;;22.00;;
68951;SDS011;56000;51.146;17.112;2022-08-25T04:22:34;25.30;;;21.10;;
68951;SDS011;56000;51.146;17.112;2022-08-25T04:25:08;27.90;;;21.60;;
68951;SDS011;56000;51.146;17.112;2022-08-25T04:27:42;24.50;;;21.50;;
68951;SDS011;56000;51.146;17.112;2022-08-25T04:30:15;29.30;;;24.50;;
68951;SDS011;56000;51.146;17.112;2022-08-25T04:32:48;40.90;;;24.50;;
68951;SDS011;56000;51.146;17.112;2022-08-25T04:35:21;52.90;;;21.40;;
68951;SDS011;56000;51.146;17.112;2022-08-25T04:37:54;49.70;;;25.20;;
68951;SDS011;56000;51.146;17.112;2022-08-25T04:40:27;76.30;;;27.20;;
68951;SDS011;56000;51.146;17.112;2022-08-25T04:43:00;58.30;;;25.60;;
68951;SDS011;56000;51.146;17.112;2022-08-25T04:45:36;77.90;;;25.70;;
68951;SDS011;56000;51.146;17.112;2022-08-25T04:48:10;91.10;;;20.00;;
68951;SDS011;56000;51.146;17.112;2022-08-25T04:50:43;62.40;;;22.00;;
68951;SDS011;56000;51.146;17.112;2022-08-25T04:53:16;76.20;;;22.50;;
68951;SDS011;56000;51.146;17.112;2022-08-25T04:55:50;73.10;;;23.10;;
68951;SDS011;56000;51.146;17.112;2022-08-25T04:58:23;44.60;;;18.70;;
68951;SDS011;56000;51.146;17.112;2022-08-25T05:01:03;33.60;;;20.00;;
68951;SDS011;56000;51.146;17.112;2022-08-25T05:03:38;60.40;;;18.90;;
68951;SDS011;56000;51.146;17.112;2022-08-25T05:06:14;40.70;;;19.60;;
68951;SDS011;56000;51.146;17.112;2022-08-25T05:08:47;48.40;;;21.20;;
68951;SDS011;56000;51.146;17.112;2022-08-25T05:11:21;35.20;;;21.20;;
68951;SDS011;56000;51.146;17.112;2022-08-25T05:13:56;26.20;;;18.20;;
68951;SDS011;56000;51.146;17.112;2022-08-25T05:16:31;32.50;;;20.30;;
68951;SDS011;56000;51.146;17.112;2022-08-25T05:19:03;19.90;;;17.00;;
68951;SDS011;56000;51.146;17.112;2022-08-25T05:21:37;20.70;;;16.70;;
68951;SDS011;56000;51.146;17.112;2022-08-25T05:24:10;20.80;;;16.80;;
68951;SDS011;56000;51.146;17.112;2022-08-25T05:26:43;18.20;;;16.30;;
68951;SDS011;56000;51.146;17.112;2022-08-25T05:29:15;17.70;;;15.80;;
68951;SDS011;56000;51.146;17.112;2022-08-25T05:31:48;18.90;;;16.00;;
68951;SDS011;56000;51.146;17.112;2022-08-25T05:34:22;18.80;;;16.60;;
68951;SDS011;56000;51.146;17.112;2022-08-25T05:36:54;24.10;;;16.00;;
68951;SDS011;56000;51.146;17.112;2022-08-25T05:39:28;48.10;;;20.40;;
68951;SDS011;56000;51.146;17.112;2022-08-25T05:42:02;36.20;;;18.00;;
68951;SDS011;56000;51.146;17.112;2022-08-25T05:44:36;28.90;;;17.60;;
68951;SDS011;56000;51.146;17.112;2022-08-25T05:47:08;38.00;;;17.50;;
68951;SDS011;56000;51.146;17.112;2022-08-25T05:49:41;35.70;;;17.80;;
68951;SDS011;56000;51.146;17.112;2022-08-25T05:52:14;39.10;;;19.70;;
68951;SDS011;56000;51.146;17.112;2022-08-25T05:54:48;39.50;;;17.00;;
68951;SDS011;56000;51.146;17.112;2022-08-25T05:57:21;45.30;;;17.20;;
68951;SDS011;56000;51.146;17.112;2022-08-25T05:59:54;47.00;;;16.50;;
68951;SDS011;56000;51.146;17.112;2022-08-25T06:02:27;26.20;;;17.70;;
68951;SDS011;56000;51.146;17.112;2022-08-25T06:05:16;30.40;;;14.10;;
68951;SDS011;56000;51.146;17.112;2022-08-25T06:07:51;33.20;;;16.90;;
68951;SDS011;56000;51.146;17.112;2022-08-25T06:10:24;34.00;;;14.20;;
68951;SDS011;56000;51.146;17.112;2022-08-25T06:12:58;18.40;;;13.80;;
68951;SDS011;56000;51.146;17.112;2022-08-25T06:15:35;25.50;;;13.50;;
68951;SDS011;56000;51.146;17.112;2022-08-25T06:18:08;19.70;;;14.80;;
68951;SDS011;56000;51.146;17.112;2022-08-25T06:20:40;19.80;;;14.10;;
68951;SDS011;56000;51.146;17.112;2022-08-25T06:23:14;17.10;;;13.60;;
68951;SDS011;56000;51.146;17.112;2022-08-25T06:25:51;17.40;;;11.30;;
68951;SDS011;56000;51.146;17.112;2022-08-25T06:28:25;18.60;;;12.10;;
68951;SDS011;56000;51.146;17.112;2022-08-25T06:31:00;17.70;;;12.10;;
68951;SDS011;56000;51.146;17.112;2022-08-25T06:33:32;12.10;;;10.90;;
68951;SDS011;56000;51.146;17.112;2022-08-25T06:36:06;14.20;;;10.90;;
68951;SDS011;56000;51.146;17.112;2022-08-25T06:38:39;15.40;;;12.30;;
68951;SDS011;56000;51.146;17.112;2022-08-25T06:41:13;16.10;;;12.60;;
68951;SDS011;56000;51.146;17.112;2022-08-25T06:43:46;14.60;;;11.20;;
68951;SDS011;56000;51.146;17.112;2022-08-25T06:46:26;14.00;;;11.30;;
68951;SDS011;56000;51.146;17.112;2022-08-25T06:49:05;16.50;;;11.80;;
68951;SDS011;56000;51.146;17.112;2022-08-25T06:51:39;14.30;;;9.30;;
68951;SDS011;56000;51.146;17.112;2022-08-25T06:54:12;14.20;;;10.60;;
68951;SDS011;56000;51.146;17.112;2022-08-25T06:56:45;12.00;;;10.30;;
68951;SDS011;56000;51.146;17.112;2022-08-25T06:59:18;14.60;;;10.10;;
68951;SDS011;56000;51.146;17.112;2022-08-25T07:01:51;13.20;;;10.30;;
68951;SDS011;56000;51.146;17.112;2022-08-25T07:04:25;12.80;;;9.70;;
68951;SDS011;56000;51.146;17.112;2022-08-25T07:06:57;13.70;;;10.60;;
68951;SDS011;56000;51.146;17.112;2022-08-25T07:09:31;12.80;;;11.40;;
68951;SDS011;56000;51.146;17.112;2022-08-25T07:12:08;17.40;;;9.30;;
68951;SDS011;56000;51.146;17.112;2022-08-25T07:14:41;15.80;;;10.30;;
68951;SDS011;56000;51.146;17.112;2022-08-25T07:17:32;14.20;;;11.20;;
68951;SDS011;56000;51.146;17.112;2022-08-25T07:20:07;15.60;;;12.80;;
68951;SDS011;56000;51.146;17.112;2022-08-25T07:22:42;22.20;;;13.30;;
68951;SDS011;56000;51.146;17.112;2022-08-25T07:25:15;23.80;;;16.00;;
68951;SDS011;56000;51.146;17.112;2022-08-25T07:27:48;27.30;;;18.90;;
68951;SDS011;56000;51.146;17.112;2022-08-25T07:30:28;31.80;;;21.60;;
68951;SDS011;56000;51.146;17.112;2022-08-25T07:33:01;28.70;;;18.50;;
68951;SDS011;56000;51.146;17.112;2022-08-25T07:35:35;33.00;;;20.90;;
68951;SDS011;56000;51.146;17.112;2022-08-25T07:38:12;33.10;;;21.60;;
68951;SDS011;56000;51.146;17.112;2022-08-25T07:40:49;28.40;;;21.50;;
68951;SDS011;56000;51.146;17.112;2022-08-25T07:43:30;28.20;;;20.60;;
68951;SDS011;56000;51.146;17.112;2022-08-25T07:46:06;28.30;;;20.30;;
68951;SDS011;56000;51.146;17.112;2022-08-25T07:48:39;27.20;;;20.20;;
68951;SDS011;56000;51.146;17.112;2022-08-25T07:51:21;21.90;;;14.30;;
68951;SDS011;56000;51.146;17.112;2022-08-25T07:53:55;19.90;;;11.50;;
68951;SDS011;56000;51.146;17.112;2022-08-25T07:56:29;16.70;;;12.30;;
68951;SDS011;56000;51.146;17.112;2022-08-25T07:59:02;21.00;;;12.10;;
68951;SDS011;56000;51.146;17.112;2022-08-25T08:01:41;18.70;;;12.10;;
68951;SDS011;56000;51.146;17.112;2022-08-25T08:04:14;17.70;;;13.10;;
68951;SDS011;56000;51.146;17.112;2022-08-25T08:06:46;18.20;;;11.30;;
68951;SDS011;56000;51.146;17.112;2022-08-25T08:09:20;13.80;;;9.10;;
68951;SDS011;56000;51.146;17.112;2022-08-25T08:11:52;14.30;;;9.20;;
68951;SDS011;56000;51.146;17.112;2022-08-25T08:14:26;11.60;;;8.80;;
68951;SDS011;56000;51.146;17.112;2022-08-25T08:17:03;17.00;;;9.20;;
68951;SDS011;56000;51.146;17.112;2022-08-25T08:19:37;15.60;;;9.50;;
68951;SDS011;56000;51.146;17.112;2022-08-25T08:22:14;17.00;;;9.60;;
68951;SDS011;56000;51.146;17.112;2022-08-25T08:24:46;16.30;;;10.70;;
68951;SDS011;56000;51.146;17.112;2022-08-25T08:27:25;17.90;;;9.50;;
68951;SDS011;56000;51.146;17.112;2022-08-25T08:29:58;17.20;;;9.20;;
68951;SDS011;56000;51.146;17.112;2022-08-25T08:32:31;20.80;;;10.20;;
68951;SDS011;56000;51.146;17.112;2022-08-25T08:35:24;17.60;;;8.60;;
68951;SDS011;56000;51.146;17.112;2022-08-25T08:37:57;14.60;;;8.60;;
68951;SDS011;56000;51.146;17.112;2022-08-25T08:40:30;14.50;;;8.30;;
68951;SDS011;56000;51.146;17.112;2022-08-25T08:43:08;18.60;;;9.20;;
68951;SDS011;56000;51.146;17.112;2022-08-25T08:45:48;14.20;;;7.70;;
68951;SDS011;56000;51.146;17.112;2022-08-25T08:48:47;16.20;;;7.60;;
68951;SDS011;56000;51.146;17.112;2022-08-25T08:51:29;16.00;;;7.40;;
68951;SDS011;56000;51.146;17.112;2022-08-25T08:54:10;15.30;;;6.40;;
68951;SDS011;56000;51.146;17.112;2022-08-25T08:56:55;15.80;;;6.70;;
68951;SDS011;56000;51.146;17.112;2022-08-25T08:59:41;20.50;;;6.80;;
68951;SDS011;56000;51.146;17.112;2022-08-25T09:02:24;10.60;;;5.40;;
68951;SDS011;56000;51.146;17.112;2022-08-25T09:05:20;14.20;;;6.20;;
68951;SDS011;56000;51.146;17.112;2022-08-25T09:07:59;16.10;;;6.10;;
68951;SDS011;56000;51.146;17.112;2022-08-25T09:10:40;14.00;;;5.80;;
68951;SDS011;56000;51.146;17.112;2022-08-25T09:13:34;14.70;;;5.30;;
68951;SDS011;56000;51.146;17.112;2022-08-25T09:16:18;16.40;;;5.10;;
68951;SDS011;56000;51.146;17.112;2022-08-25T09:19:23;23.10;;;6.30;;
68951;SDS011;56000;51.146;17.112;2022-08-25T09:22:21;14.10;;;4.00;;
68951;SDS011;56000;51.146;17.112;2022-08-25T09:25:10;20.30;;;4.70;;
68951;SDS011;56000;51.146;17.112;2022-08-25T09:28:07;17.30;;;4.60;;
68951;SDS011;56000;51.146;17.112;2022-08-25T09:30:52;14.70;;;4.20;;
68951;SDS011;56000;51.146;17.112;2022-08-25T09:33:31;45.00;;;7.90;;
68951;SDS011;56000;51.146;17.112;2022-08-25T09:36:05;27.10;;;5.80;;
68951;SDS011;56000;51.146;17.112;2022-08-25T09:38:39;34.00;;;7.20;;
68951;SDS011;56000;51.146;17.112;2022-08-25T09:41:14;34.90;;;5.80;;
68951;SDS011;56000;51.146;17.112;2022-08-25T09:43:54;76.70;;;9.30;;
68951;SDS011;56000;51.146;17.112;2022-08-25T09:46:28;412.00;;;43.50;;
68951;SDS011;56000;51.146;17.112;2022-08-25T09:49:11;111.30;;;13.20;;
68951;SDS011;56000;51.146;17.112;2022-08-25T09:51:45;43.80;;;6.10;;
68951;SDS011;56000;51.146;17.112;2022-08-25T09:54:21;21.00;;;4.70;;
68951;SDS011;56000;51.146;17.112;2022-08-25T09:57:26;15.20;;;4.60;;
68951;SDS011;56000;51.146;17.112;2022-08-25T10:00:16;16.90;;;4.30;;
68951;SDS011;56000;51.146;17.112;2022-08-25T10:03:11;13.80;;;3.90;;
68951;SDS011;56000;51.146;17.112;2022-08-25T10:06:05;25.80;;;4.80;;
68951;SDS011;56000;51.146;17.112;2022-08-25T10:08:53;29.10;;;6.30;;
68951;SDS011;56000;51.146;17.112;2022-08-25T10:11:41;65.30;;;8.20;;
68951;SDS011;56000;51.146;17.112;2022-08-25T10:14:20;35.60;;;5.90;;
68951;SDS011;56000;51.146;17.112;2022-08-25T10:17:16;17.80;;;4.10;;
68951;SDS011;56000;51.146;17.112;2022-08-25T10:20:15;32.20;;;6.30;;
68951;SDS011;56000;51.146;17.112;2022-08-25T10:22:50;10.60;;;4.00;;
68951;SDS011;56000;51.146;17.112;2022-08-25T10:25:41;19.00;;;4.70;;
68951;SDS011;56000;51.146;17.112;2022-08-25T10:28:33;23.10;;;5.20;;
68951;SDS011;56000;51.146;17.112;2022-08-25T10:31:17;20.80;;;4.80;;
68951;SDS011;56000;51.146;17.112;2022-08-25T10:34:02;18.30;;;4.70;;
68951;SDS011;56000;51.146;17.112;2022-08-25T10:36:52;13.80;;;4.00;;
68951;SDS011;56000;51.146;17.112;2022-08-25T10:39:40;26.00;;;4.60;;
68951;SDS011;56000;51.146;17.112;2022-08-25T10:42:29;13.70;;;4.50;;
68951;SDS011;56000;51.146;17.112;2022-08-25T10:45:18;20.80;;;5.20;;
68951;SDS011;56000;51.146;17.112;2022-08-25T10:48:36;24.20;;;4.40;;
68951;SDS011;56000;51.146;17.112;2022-08-25T10:51:43;14.60;;;4.30;;
68951;SDS011;56000;51.146;17.112;2022-08-25T10:54:36;52.40;;;8.30;;
68951;SDS011;56000;51.146;17.112;2022-08-25T10:57:20;13.50;;;4.30;;
68951;SDS011;56000;51.146;17.112;2022-08-25T11:00:07;22.30;;;4.90;;
68951;SDS011;56000;51.146;17.112;2022-08-25T11:03:13;14.30;;;4.40;;
68951;SDS011;56000;51.146;17.112;2022-08-25T11:05:57;27.80;;;4.90;;
68951;SDS011;56000;51.146;17.112;2022-08-25T11:08:35;18.10;;;4.40;;
68951;SDS011;56000;51.146;17.112;2022-08-25T11:11:12;25.60;;;5.00;;
68951;SDS011;56000;51.146;17.112;2022-08-25T11:14:06;20.20;;;5.30;;
68951;SDS011;56000;51.146;17.112;2022-08-25T11:16:44;19.30;;;5.00;;
68951;SDS011;56000;51.146;17.112;2022-08-25T11:19:24;44.20;;;6.40;;
68951;SDS011;56000;51.146;17.112;2022-08-25T11:22:06;18.10;;;5.40;;
68951;SDS011;56000;51.146;17.112;2022-08-25T11:24:58;29.50;;;5.80;;
68951;SDS011;56000;51.146;17.112;2022-08-25T11:27:40;28.50;;;5.70;;
68951;SDS011;56000;51.146;17.112;2022-08-25T11:30:19;26.90;;;5.00;;
68951;SDS011;56000;51.146;17.112;2022-08-25T11:32:54;23.10;;;5.20;;
68951;SDS011;56000;51.146;17.112;2022-08-25T11:35:30;24.80;;;5.30;;
68951;SDS011;56000;51.146;17.112;2022-08-25T11:38:16;52.60;;;7.40;;
68951;SDS011;56000;51.146;17.112;2022-08-25T11:41:07;107.30;;;12.60;;
68951;SDS011;56000;51.146;17.112;2022-08-25T11:44:03;38.40;;;6.30;;
68951;SDS011;56000;51.146;17.112;2022-08-25T11:46:51;24.00;;;5.90;;
68951;SDS011;56000;51.146;17.112;2022-08-25T11:49:50;20.60;;;5.00;;
68951;SDS011;56000;51.146;17.112;2022-08-25T11:52:49;32.30;;;5.90;;
68951;SDS011;56000;51.146;17.112;2022-08-25T11:55:30;58.90;;;9.70;;
68951;SDS011;56000;51.146;17.112;2022-08-25T11:58:36;16.30;;;4.50;;
68951;SDS011;56000;51.146;17.112;2022-08-25T12:04:58;23.30;;;5.50;;
68951;SDS011;56000;51.146;17.112;2022-08-25T12:08:00;23.30;;;5.30;;
68951;SDS011;56000;51.146;17.112;2022-08-25T12:11:01;38.60;;;7.30;;
68951;SDS011;56000;51.146;17.112;2022-08-25T12:13:45;26.20;;;5.50;;
68951;SDS011;56000;51.146;17.112;2022-08-25T12:16:41;17.80;;;5.20;;
68951;SDS011;56000;51.146;17.112;2022-08-25T12:19:50;24.00;;;5.50;;
68951;SDS011;56000;51.146;17.112;2022-08-25T12:22:55;29.50;;;6.70;;
68951;SDS011;56000;51.146;17.112;2022-08-25T12:25:37;28.00;;;5.40;;
68951;SDS011;56000;51.146;17.112;2022-08-25T12:28:30;31.40;;;6.50;;
68951;SDS011;56000;51.146;17.112;2022-08-25T12:34:43;31.20;;;6.40;;
68951;SDS011;56000;51.146;17.112;2022-08-25T12:37:58;34.50;;;6.20;;
68951;SDS011;56000;51.146;17.112;2022-08-25T12:40:37;25.80;;;6.00;;
68951;SDS011;56000;51.146;17.112;2022-08-25T12:43:26;50.30;;;6.40;;
68951;SDS011;56000;51.146;17.112;2022-08-25T12:46:34;22.10;;;5.10;;
68951;SDS011;56000;51.146;17.112;2022-08-25T12:52:04;27.30;;;5.50;;
68951;SDS011;56000;51.146;17.112;2022-08-25T12:54:45;35.90;;;5.90;;
68951;SDS011;56000;51.146;17.112;2022-08-25T12:57:30;24.20;;;5.80;;
68951;SDS011;56000;51.146;17.112;2022-08-25T13:00:19;145.50;;;13.90;;
68951;SDS011;56000;51.146;17.112;2022-08-25T13:03:18;30.30;;;6.50;;
68951;SDS011;56000;51.146;17.112;2022-08-25T13:06:13;43.80;;;6.90;;
68951;SDS011;56000;51.146;17.112;2022-08-25T13:09:07;38.90;;;6.30;;
68951;SDS011;56000;51.146;17.112;2022-08-25T13:11:55;35.90;;;6.00;;
68951;SDS011;56000;51.146;17.112;2022-08-25T13:14:38;30.30;;;5.80;;
68951;SDS011;56000;51.146;17.112;2022-08-25T13:17:12;36.90;;;6.50;;
68951;SDS011;56000;51.146;17.112;2022-08-25T13:20:15;32.00;;;6.10;;
68951;SDS011;56000;51.146;17.112;2022-08-25T13:22:52;40.10;;;6.30;;
68951;SDS011;56000;51.146;17.112;2022-08-25T13:25:32;37.90;;;6.30;;
68951;SDS011;56000;51.146;17.112;2022-08-25T13:28:09;37.00;;;6.80;;
68951;SDS011;56000;51.146;17.112;2022-08-25T13:31:00;39.20;;;8.00;;
68951;SDS011;56000;51.146;17.112;2022-08-25T13:33:37;27.40;;;5.70;;
68951;SDS011;56000;51.146;17.112;2022-08-25T13:36:24;26.20;;;5.40;;
68951;SDS011;56000;51.146;17.112;2022-08-25T13:39:26;27.70;;;6.30;;
68951;SDS011;56000;51.146;17.112;2022-08-25T13:42:22;30.70;;;5.50;;
68951;SDS011;56000;51.146;17.112;2022-08-25T13:44:58;32.70;;;6.90;;
68951;SDS011;56000;51.146;17.112;2022-08-25T13:47:35;30.10;;;5.90;;
68951;SDS011;56000;51.146;17.112;2022-08-25T13:50:32;27.50;;;6.30;;
68951;SDS011;56000;51.146;17.112;2022-08-25T13:53:09;65.00;;;8.20;;
68951;SDS011;56000;51.146;17.112;2022-08-25T13:55:51;29.50;;;5.80;;
68951;SDS011;56000;51.146;17.112;2022-08-25T13:58:26;21.80;;;5.60;;
68951;SDS011;56000;51.146;17.112;2022-08-25T14:01:16;46.30;;;7.00;;
68951;SDS011;56000;51.146;17.112;2022-08-25T14:07:13;24.20;;;5.90;;
68951;SDS011;56000;51.146;17.112;2022-08-25T14:10:06;24.40;;;5.40;;
68951;SDS011;56000;51.146;17.112;2022-08-25T14:12:43;25.90;;;4.90;;
68951;SDS011;56000;51.146;17.112;2022-08-25T14:15:28;30.10;;;5.70;;
68951;SDS011;56000;51.146;17.112;2022-08-25T14:18:04;28.50;;;6.50;;
68951;SDS011;56000;51.146;17.112;2022-08-25T14:20:46;24.20;;;6.30;;
68951;SDS011;56000;51.146;17.112;2022-08-25T14:23:23;25.40;;;5.80;;
68951;SDS011;56000;51.146;17.112;2022-08-25T14:25:59;29.00;;;5.70;;
68951;SDS011;56000;51.146;17.112;2022-08-25T14:28:35;28.10;;;5.00;;
68951;SDS011;56000;51.146;17.112;2022-08-25T14:31:10;37.90;;;6.00;;
68951;SDS011;56000;51.146;17.112;2022-08-25T14:33:51;32.60;;;5.20;;
68951;SDS011;56000;51.146;17.112;2022-08-25T14:36:29;38.40;;;5.70;;
68951;SDS011;56000;51.146;17.112;2022-08-25T14:39:04;29.70;;;5.20;;
68951;SDS011;56000;51.146;17.112;2022-08-25T14:41:39;27.80;;;6.40;;
68951;SDS011;56000;51.146;17.112;2022-08-25T14:44:22;25.00;;;5.40;;
68951;SDS011;56000;51.146;17.112;2022-08-25T14:46:56;25.00;;;5.60;;
68951;SDS011;56000;51.146;17.112;2022-08-25T14:49:31;27.80;;;5.90;;
68951;SDS011;56000;51.146;17.112;2022-08-25T14:52:08;31.40;;;5.70;;
68951;SDS011;56000;51.146;17.112;2022-08-25T14:54:51;25.20;;;5.70;;
68951;SDS011;56000;51.146;17.112;2022-08-25T14:57:26;31.40;;;6.40;;
68951;SDS011;56000;51.146;17.112;2022-08-25T14:59:59;62.70;;;7.80;;
68951;SDS011;56000;51.146;17.112;2022-08-25T15:02:34;21.60;;;4.70;;
68951;SDS011;56000;51.146;17.112;2022-08-25T15:05:09;38.10;;;6.20;;
68951;SDS011;56000;51.146;17.112;2022-08-25T15:07:48;58.00;;;6.80;;
68951;SDS011;56000;51.146;17.112;2022-08-25T15:10:41;76.70;;;7.70;;
68951;SDS011;56000;51.146;17.112;2022-08-25T15:13:15;34.90;;;6.00;;
68951;SDS011;56000;51.146;17.112;2022-08-25T15:15:49;35.50;;;6.40;;
68951;SDS011;56000;51.146;17.112;2022-08-25T15:18:22;225.00;;;16.80;;
68951;SDS011;56000;51.146;17.112;2022-08-25T15:20:55;40.10;;;6.60;;
68951;SDS011;56000;51.146;17.112;2022-08-25T15:23:30;45.50;;;7.10;;
68951;SDS011;56000;51.146;17.112;2022-08-25T15:26:06;25.30;;;5.70;;
68951;SDS011;56000;51.146;17.112;2022-08-25T15:28:43;35.80;;;5.70;;
68951;SDS011;56000;51.146;17.112;2022-08-25T15:31:18;24.40;;;5.40;;
68951;SDS011;56000;51.146;17.112;2022-08-25T15:33:52;21.70;;;5.10;;
68951;SDS011;56000;51.146;17.112;2022-08-25T15:36:25;31.70;;;5.10;;